Time;durP1;ratioP1;P1;durP2;ratioP2;P2;SDS_P1;SDS_P2;PMS_P1;PMS_P2;Temp;Humidity;BMP_temperature;BMP_pressure;BME280_temperature;BME280_humidity;BME280_pressure;Samples;Min_cycle;Max_cycle;Signal;HPM_P1;HPM_P2
2022/08/10 00:00:21;;;;;;;8.93;4.27;;;22.30;31.40;;;;;;4992299;28;20302;-44
2022/08/10 00:03:13;;;;;;;5.60;4.13;;;22.30;31.50;;;;;;4992495;28;20183;-43
2022/08/10 00:05:39;;;;;;;4.60;3.33;;;22.30;31.60;;;;;;4987744;28;20811;-44
2022/08/10 00:08:05;;;;;;;5.57;4.43;;;22.30;31.40;;;;;;4992383;28;20497;-45
2022/08/10 00:10:30;;;;;;;5.40;3.70;;;22.30;31.50;;;;;;4992495;28;20342;-45
2022/08/10 00:12:56;;;;;;;6.23;4.07;;;22.30;31.50;;;;;;4992547;28;20175;-44
2022/08/10 00:15:23;;;;;;;6.43;4.90;;;22.30;31.40;;;;;;4992366;28;20677;-44
2022/08/10 00:17:49;;;;;;;6.27;4.43;;;22.30;31.50;;;;;;4992072;28;20419;-45
2022/08/10 00:20:15;;;;;;;5.20;3.73;;;22.30;31.70;;;;;;4992111;28;20525;-46
2022/08/10 00:22:41;;;;;;;4.67;4.23;;;22.20;31.60;;;;;;4992178;28;20929;-45
2022/08/10 00:25:07;;;;;;;4.10;3.43;;;22.20;31.70;;;;;;4992233;28;20410;-44
2022/08/10 00:27:33;;;;;;;5.10;4.60;;;22.10;32.00;;;;;;4991964;28;20176;-45
2022/08/10 00:29:59;;;;;;;5.93;4.37;;;22.00;32.00;;;;;;4992394;28;20445;-45
2022/08/10 00:32:25;;;;;;;6.07;4.40;;;22.00;32.10;;;;;;4992349;28;20406;-44
2022/08/10 00:34:51;;;;;;;5.27;4.77;;;22.00;32.00;;;;;;4992199;28;20172;-44
2022/08/10 00:37:17;;;;;;;5.40;4.00;;;21.90;32.20;;;;;;4991956;28;20593;-43
2022/08/10 00:39:43;;;;;;;5.57;4.50;;;21.90;32.30;;;;;;4992070;28;20203;-43
2022/08/10 00:42:11;;;;;;;6.10;5.13;;;21.80;32.20;;;;;;4992253;28;20469;-45
2022/08/10 00:44:39;;;;;;;6.90;4.30;;;21.80;32.40;;;;;;4992858;28;20414;-44
2022/08/10 00:47:06;;;;;;;6.30;3.90;;;21.80;32.60;;;;;;4995669;28;20429;-44
2022/08/10 00:49:32;;;;;;;6.40;4.13;;;21.70;32.70;;;;;;4995426;28;20453;-45
2022/08/10 00:51:58;;;;;;;8.47;4.00;;;21.60;32.60;;;;;;4995436;28;20410;-44
2022/08/10 00:54:25;;;;;;;5.00;3.90;;;21.60;32.80;;;;;;4995489;28;20920;-44
2022/08/10 00:56:51;;;;;;;6.10;3.80;;;21.60;32.70;;;;;;4995329;28;20415;-45
2022/08/10 00:59:17;;;;;;;10.80;4.77;;;21.60;33.00;;;;;;4995335;28;20529;-44
2022/08/10 01:01:42;;;;;;;8.33;5.00;;;21.40;33.10;;;;;;4995435;28;20461;-44
2022/08/10 01:04:08;;;;;;;5.50;4.00;;;21.40;33.10;;;;;;4995353;28;20502;-43
2022/08/10 01:06:44;;;;;;;6.17;4.30;;;21.30;33.10;;;;;;4994950;28;20202;-44
2022/08/10 01:09:22;;;;;;;5.43;4.83;;;21.30;33.30;;;;;;4995424;28;20425;-45
2022/08/10 01:12:01;;;;;;;6.80;4.43;;;21.20;33.40;;;;;;4995090;28;20976;-42
2022/08/10 01:14:34;;;;;;;8.67;3.37;;;21.20;33.50;;;;;;4995247;28;20418;-44
2022/08/10 01:17:11;;;;;;;6.00;3.83;;;21.10;33.50;;;;;;4995058;28;20403;-46
2022/08/10 01:20:05;;;;;;;5.33;3.97;;;21.10;33.50;;;;;;4995291;28;20480;-44
2022/08/10 01:23:09;;;;;;;5.83;4.50;;;21.10;33.50;;;;;;4994953;28;20867;-44
2022/08/10 01:25:55;;;;;;;4.17;3.47;;;21.10;33.20;;;;;;4896538;29;20517;-44
2022/08/10 01:28:36;;;;;;;4.90;3.87;;;21.20;33.10;;;;;;4896924;29;20411;-45
2022/08/10 01:31:04;;;;;;;5.97;4.17;;;21.20;33.20;;;;;;4896801;29;20473;-44
2022/08/10 01:33:52;;;;;;;4.77;3.93;;;21.10;33.20;;;;;;4896768;29;20423;-45
2022/08/10 01:36:24;;;;;;;5.03;3.83;;;21.10;33.40;;;;;;4896599;29;20921;-44
2022/08/10 01:38:51;;;;;;;3.97;3.57;;;21.00;33.40;;;;;;4896616;29;20423;-43
2022/08/10 01:41:40;;;;;;;5.23;4.00;;;21.00;33.50;;;;;;4896503;29;20466;-43
2022/08/10 01:44:15;;;;;;;4.30;3.23;;;21.00;33.90;;;;;;4896454;29;20510;-44
2022/08/10 01:46:46;;;;;;;6.50;3.87;;;21.00;33.40;;;;;;4896424;29;20459;-44
2022/08/10 01:49:14;;;;;;;4.70;3.50;;;21.00;33.30;;;;;;4896276;29;20458;-43
2022/08/10 01:51:50;;;;;;;8.40;3.67;;;21.00;33.50;;;;;;4896599;29;20420;-44
2022/08/10 01:54:19;;;;;;;4.90;3.30;;;20.90;33.50;;;;;;4880760;29;20449;-44
2022/08/10 01:56:49;;;;;;;5.17;3.53;;;20.90;33.40;;;;;;4961410;28;20411;-45
2022/08/10 01:59:23;;;;;;;4.00;3.60;;;20.90;33.50;;;;;;4994247;28;20446;-46
2022/08/10 02:01:54;;;;;;;5.10;3.70;;;20.80;33.80;;;;;;4994461;28;20533;-44
2022/08/10 02:04:21;;;;;;;4.73;3.70;;;20.80;33.70;;;;;;4994184;28;20387;-43
2022/08/10 02:06:50;;;;;;;9.17;4.30;;;20.70;33.60;;;;;;4993929;28;20406;-43
2022/08/10 02:09:22;;;;;;;4.70;3.83;;;20.70;33.80;;;;;;4994250;28;20482;-45
2022/08/10 02:11:50;;;;;;;3.90;2.80;;;20.70;33.70;;;;;;4994046;28;20922;-45
2022/08/10 02:14:17;;;;;;;3.87;3.47;;;20.70;33.80;;;;;;4994118;28;20494;-45
2022/08/10 02:16:48;;;;;;;6.27;4.33;;;20.70;33.90;;;;;;4994142;28;20501;-45
2022/08/10 02:19:18;;;;;;;5.80;4.60;;;20.70;33.90;;;;;;4993930;28;20809;-45
2022/08/10 02:21:47;;;;;;;6.33;3.10;;;20.70;34.00;;;;;;4993681;28;20454;-44
2022/08/10 02:24:17;;;;;;;6.20;3.70;;;20.70;34.10;;;;;;4993910;28;20461;-43
2022/08/10 02:26:44;;;;;;;3.72;3.20;;;20.70;34.10;;;;;;4993675;28;20481;-44
2022/08/10 02:29:14;;;;;;;3.80;3.30;;;20.70;34.10;;;;;;4993924;28;20231;-45
2022/08/10 02:31:42;;;;;;;3.53;2.97;;;20.70;34.10;;;;;;4993621;28;20183;-45
2022/08/10 02:34:13;;;;;;;9.27;4.40;;;20.60;34.00;;;;;;4993809;28;20222;-45
2022/08/10 02:36:50;;;;;;;4.33;3.20;;;20.50;34.30;;;;;;4993439;28;20414;-46
2022/08/10 02:39:17;;;;;;;4.27;3.40;;;20.50;34.40;;;;;;4993405;28;20922;-44
2022/08/10 02:41:56;;;;;;;7.28;4.18;;;20.50;34.30;;;;;;4993675;28;20454;-44
2022/08/10 02:44:37;;;;;;;5.83;3.77;;;20.40;34.50;;;;;;4993472;28;20209;-45
2022/08/10 02:47:46;;;;;;;6.00;3.30;;;20.40;34.70;;;;;;4993147;28;20402;-45
2022/08/10 02:50:26;;;;;;;5.77;3.80;;;20.30;35.00;;;;;;4992548;28;20586;-44
2022/08/10 02:53:13;;;;;;;4.35;3.47;;;20.20;34.80;;;;;;4993204;28;21215;-44
2022/08/10 02:55:51;;;;;;;5.50;3.40;;;20.20;35.00;;;;;;4993126;28;20210;-44
2022/08/10 02:58:27;;;;;;;4.50;3.28;;;20.20;35.00;;;;;;4993261;28;20183;-44
2022/08/10 03:00:56;;;;;;;6.63;4.28;;;20.20;35.00;;;;;;4993002;28;20211;-45
2022/08/10 03:03:29;;;;;;;4.15;3.75;;;20.10;34.90;;;;;;4993069;28;20175;-43
2022/08/10 03:06:00;;;;;;;5.38;4.20;;;20.10;34.90;;;;;;4993253;28;20529;-45
2022/08/10 03:08:32;;;;;;;4.90;3.90;;;20.10;34.70;;;;;;4992316;28;20176;-44
2022/08/10 03:11:02;;;;;;;4.43;4.03;;;20.10;34.80;;;;;;4993043;28;20202;-44
2022/08/10 03:13:29;;;;;;;4.90;3.33;;;20.10;34.90;;;;;;4993253;28;20175;-44
2022/08/10 03:15:57;;;;;;;5.18;3.85;;;20.10;35.00;;;;;;4992969;28;20171;-45
2022/08/10 03:18:23;;;;;;;4.07;3.67;;;20.10;35.00;;;;;;4993169;28;20187;-43
2022/08/10 03:20:52;;;;;;;4.05;3.45;;;20.00;35.00;;;;;;4992677;28;20217;-45
2022/08/10 03:23:22;;;;;;;4.50;3.90;;;19.90;35.00;;;;;;4992808;28;20190;-45
2022/08/10 03:25:51;;;;;;;6.45;4.28;;;20.00;34.90;;;;;;4992657;28;20166;-43
2022/08/10 03:28:17;;;;;;;5.15;3.47;;;19.90;34.80;;;;;;4992730;28;20540;-43
2022/08/10 03:30:43;;;;;;;5.13;3.75;;;19.90;35.00;;;;;;4992917;28;20203;-45
2022/08/10 03:33:11;;;;;;;5.43;3.63;;;19.90;34.90;;;;;;4992694;28;20183;-45
2022/08/10 03:35:37;;;;;;;8.38;3.85;;;19.90;35.00;;;;;;4992692;28;20189;-43
2022/08/10 03:38:03;;;;;;;4.43;3.83;;;19.90;35.20;;;;;;4992636;28;20171;-44
2022/08/10 03:40:33;;;;;;;5.83;5.00;;;19.80;35.20;;;;;;4992796;28;20458;-44
2022/08/10 03:43:02;;;;;;;5.03;4.13;;;19.80;35.40;;;;;;4992639;28;20826;-44
2022/08/10 03:45:31;;;;;;;4.57;3.85;;;19.80;35.40;;;;;;4992638;28;20711;-44
2022/08/10 03:47:58;;;;;;;7.30;4.70;;;19.80;35.40;;;;;;4992692;28;20176;-44
2022/08/10 03:50:26;;;;;;;7.07;4.78;;;19.80;35.40;;;;;;4992435;28;20301;-44
2022/08/10 03:52:54;;;;;;;5.35;4.60;;;19.80;35.40;;;;;;4992457;28;20175;-44
2022/08/10 03:55:21;;;;;;;10.90;5.05;;;19.80;35.30;;;;;;4992385;28;20238;-44
2022/08/10 03:57:47;;;;;;;5.70;4.15;;;19.80;35.50;;;;;;4992287;28;20197;-44
2022/08/10 04:00:17;;;;;;;6.53;4.07;;;19.80;35.40;;;;;;4992581;28;20219;-45
2022/08/10 04:02:45;;;;;;;5.45;4.30;;;19.80;35.30;;;;;;4992565;28;20179;-44
2022/08/10 04:05:14;;;;;;;6.53;4.47;;;19.90;35.40;;;;;;4992433;28;20168;-44
2022/08/10 04:07:43;;;;;;;9.60;4.35;;;19.90;35.60;;;;;;4992429;28;20253;-44
2022/08/10 04:10:10;;;;;;;8.65;4.57;;;19.80;35.80;;;;;;4992500;28;20199;-44
2022/08/10 04:12:36;;;;;;;4.57;4.10;;;19.80;35.80;;;;;;4992334;28;20171;-44
2022/08/10 04:15:03;;;;;;;6.55;4.80;;;19.80;35.90;;;;;;4992605;28;20543;-44
2022/08/10 04:17:28;;;;;;;14.98;6.15;;;19.90;35.90;;;;;;4992100;28;20182;-44
2022/08/10 04:19:56;;;;;;;5.23;4.07;;;19.90;36.10;;;;;;4977609;28;20199;-44
2022/08/10 04:22:25;;;;;;;7.50;5.25;;;19.90;36.20;;;;;;4995866;28;20203;-44
2022/08/10 04:24:55;;;;;;;8.40;5.10;;;20.00;36.20;;;;;;4995880;28;20265;-46
2022/08/10 04:27:22;;;;;;;10.93;5.28;;;19.90;36.20;;;;;;4995781;28;20164;-44
2022/08/10 04:29:50;;;;;;;17.92;4.85;;;19.90;36.10;;;;;;4995899;28;20195;-43
2022/08/10 04:32:19;;;;;;;9.60;5.68;;;20.00;35.90;;;;;;4996173;28;20200;-44
2022/08/10 04:34:47;;;;;;;7.75;4.80;;;20.00;36.00;;;;;;4995842;28;20210;-44
2022/08/10 04:37:14;;;;;;;11.95;4.75;;;20.00;35.90;;;;;;4995587;28;20179;-44
2022/08/10 04:40:23;;;;;;;8.40;5.15;;;20.10;35.70;;;;;;4995701;28;20199;-44
2022/08/10 04:42:52;;;;;;;7.40;5.15;;;20.10;35.90;;;;;;4995476;28;20325;-46
2022/08/10 04:45:18;;;;;;;7.70;4.50;;;20.10;36.00;;;;;;4995526;28;20697;-43
2022/08/10 04:47:44;;;;;;;9.63;5.00;;;20.20;36.10;;;;;;4995619;28;20179;-45
2022/08/10 04:50:10;;;;;;;8.93;4.70;;;20.20;36.20;;;;;;4995413;28;20478;-45
2022/08/10 04:52:36;;;;;;;6.32;4.72;;;20.20;36.30;;;;;;4995785;28;20253;-45
2022/08/10 04:55:02;;;;;;;4.30;3.83;;;20.30;36.30;;;;;;4995456;28;20175;-44
2022/08/10 04:57:28;;;;;;;6.55;4.25;;;20.30;36.30;;;;;;4995293;28;20406;-44
2022/08/10 04:59:54;;;;;;;6.33;4.70;;;20.40;36.20;;;;;;4995511;28;20195;-44
2022/08/10 05:02:19;;;;;;;5.10;3.87;;;20.40;36.30;;;;;;4995512;28;20309;-45
2022/08/10 05:04:45;;;;;;;7.80;5.10;;;20.50;36.40;;;;;;4995361;28;20673;-45
2022/08/10 05:07:13;;;;;;;7.37;5.23;;;20.50;36.30;;;;;;4995175;28;20194;-44
2022/08/10 05:09:41;;;;;;;8.82;6.10;;;20.60;36.10;;;;;;4995149;28;20198;-44
2022/08/10 05:12:07;;;;;;;4.82;4.25;;;20.60;36.00;;;;;;4995194;28;20184;-44
2022/08/10 05:14:34;;;;;;;4.70;4.13;;;20.70;36.00;;;;;;4994992;28;20180;-45
2022/08/10 05:16:59;;;;;;;5.10;3.85;;;20.80;35.90;;;;;;4994766;28;20187;-44
2022/08/10 05:19:25;;;;;;;8.80;4.70;;;20.90;35.80;;;;;;4994895;28;20257;-43
2022/08/10 05:21:51;;;;;;;4.60;3.87;;;21.00;35.90;;;;;;4995038;28;20460;-44
2022/08/10 05:24:17;;;;;;;7.83;4.17;;;21.00;35.70;;;;;;4994966;28;20981;-43
2022/08/10 05:26:43;;;;;;;5.80;4.80;;;21.10;35.90;;;;;;4994843;28;20398;-44
2022/08/10 05:29:09;;;;;;;6.33;5.23;;;21.20;35.70;;;;;;4994679;28;20810;-43
2022/08/10 05:31:35;;;;;;;5.50;4.50;;;21.20;35.60;;;;;;4994263;28;20183;-44
2022/08/10 05:34:01;;;;;;;7.50;4.83;;;21.30;35.60;;;;;;4994719;28;20273;-43
2022/08/10 05:36:27;;;;;;;7.10;4.03;;;21.40;35.50;;;;;;4994697;28;20440;-43
2022/08/10 05:38:54;;;;;;;5.25;4.18;;;21.40;35.30;;;;;;4994694;28;20407;-43
2022/08/10 05:41:20;;;;;;;10.57;4.80;;;21.50;35.30;;;;;;4994810;28;20206;-44
2022/08/10 05:43:46;;;;;;;5.95;4.10;;;21.60;35.20;;;;;;4994575;28;20852;-43
2022/08/10 05:46:12;;;;;;;5.70;3.90;;;21.70;35.20;;;;;;4994573;28;20175;-43
2022/08/10 05:48:40;;;;;;;9.43;3.95;;;21.70;35.20;;;;;;4994593;28;20175;-44
2022/08/10 05:51:06;;;;;;;5.25;4.43;;;21.70;34.90;;;;;;4994472;28;20543;-44
2022/08/10 05:53:33;;;;;;;5.20;4.70;;;21.70;34.90;;;;;;4994481;28;20213;-43
2022/08/10 05:56:01;;;;;;;5.32;4.82;;;21.70;35.00;;;;;;4994105;28;20766;-44
2022/08/10 05:58:27;;;;;;;4.93;4.40;;;21.80;35.00;;;;;;4994289;28;20175;-44
2022/08/10 06:00:56;;;;;;;7.23;5.10;;;21.90;35.10;;;;;;4994074;28;20211;-44
2022/08/10 06:03:32;;;;;;;4.43;4.03;;;22.00;34.90;;;;;;4994305;28;20206;-44
2022/08/10 06:05:59;;;;;;;6.80;5.10;;;22.00;34.70;;;;;;4994107;28;20159;-44
2022/08/10 06:08:30;;;;;;;6.45;4.93;;;22.10;34.80;;;;;;4994155;28;20163;-44
2022/08/10 06:10:58;;;;;;;5.65;4.53;;;22.20;34.80;;;;;;4994217;28;20207;-44
2022/08/10 06:16:11;;;;;;;7.72;5.00;;;22.30;34.60;;;;;;4994137;28;20214;-44
2022/08/10 06:18:37;;;;;;;4.40;4.00;;;22.30;34.40;;;;;;4994026;28;20229;-44
2022/08/10 06:21:04;;;;;;;9.88;4.50;;;22.30;34.50;;;;;;4993734;28;20276;-43
2022/08/10 06:23:31;;;;;;;5.55;5.05;;;22.30;34.50;;;;;;4993768;28;20512;-44
2022/08/10 06:25:58;;;;;;;8.13;4.90;;;22.30;34.40;;;;;;4993498;28;20179;-44
2022/08/10 06:28:27;;;;;;;4.95;3.70;;;22.40;34.40;;;;;;4993817;28;20402;-44
2022/08/10 06:30:55;;;;;;;5.93;3.90;;;22.40;34.30;;;;;;4993646;28;20187;-44
2022/08/10 06:33:23;;;;;;;6.57;4.33;;;22.40;34.30;;;;;;4993613;28;20410;-44
2022/08/10 06:35:52;;;;;;;12.52;4.55;;;22.40;34.40;;;;;;4993311;28;20416;-44
2022/08/10 06:38:22;;;;;;;6.30;4.47;;;22.40;34.50;;;;;;4993732;28;20185;-43
2022/08/10 06:40:51;;;;;;;6.17;4.80;;;22.40;34.50;;;;;;4993338;28;20969;-44
2022/08/10 06:43:21;;;;;;;9.65;4.82;;;22.50;34.50;;;;;;4993443;28;20406;-43
2022/08/10 06:45:52;;;;;;;4.67;4.10;;;22.60;34.30;;;;;;4993208;28;20171;-44
2022/08/10 06:48:32;;;;;;;8.60;5.87;;;22.60;34.40;;;;;;4993344;28;20863;-43
2022/08/10 06:51:01;;;;;;;6.70;4.90;;;22.80;34.30;;;;;;4993175;28;20446;-44
2022/08/10 06:53:34;;;;;;;4.17;3.53;;;22.90;34.50;;;;;;4993264;28;20938;-44
2022/08/10 06:56:10;;;;;;;4.17;3.77;;;23.10;34.60;;;;;;4993135;28;20502;-44
2022/08/10 06:58:44;;;;;;;6.10;4.70;;;23.20;34.00;;;;;;4993151;28;20924;-44
2022/08/10 07:01:14;;;;;;;5.13;4.57;;;23.40;33.70;;;;;;4993158;28;20450;-44
2022/08/10 07:03:47;;;;;;;9.73;5.07;;;23.50;33.30;;;;;;4993178;28;20465;-43
2022/08/10 07:06:18;;;;;;;5.90;4.20;;;23.40;33.10;;;;;;4992895;28;20426;-44
2022/08/10 07:08:44;;;;;;;5.37;3.53;;;23.60;33.70;;;;;;4993216;28;20475;-44
2022/08/10 07:11:12;;;;;;;6.90;4.53;;;23.80;33.90;;;;;;4993039;28;20414;-44
2022/08/10 07:13:39;;;;;;;5.50;4.50;;;23.90;32.70;;;;;;4993186;28;20421;-43
2022/08/10 07:16:10;;;;;;;4.60;3.80;;;23.90;33.00;;;;;;4992902;28;20521;-43
2022/08/10 07:18:40;;;;;;;4.87;4.20;;;24.10;33.20;;;;;;4992728;28;20907;-44
2022/08/10 07:21:07;;;;;;;8.30;4.10;;;24.20;33.00;;;;;;4992715;28;20459;-44
2022/08/10 07:23:35;;;;;;;5.87;3.53;;;24.40;33.00;;;;;;4992886;28;20407;-43
2022/08/10 07:26:02;;;;;;;6.07;4.70;;;24.50;32.60;;;;;;4992532;28;20884;-44
2022/08/10 07:28:31;;;;;;;4.00;3.50;;;24.60;33.00;;;;;;4992691;28;20941;-44
2022/08/10 07:30:59;;;;;;;4.00;3.47;;;24.80;32.80;;;;;;4992749;28;20437;-43
2022/08/10 07:33:27;;;;;;;5.13;3.50;;;24.90;31.70;;;;;;4992710;28;20414;-44
2022/08/10 07:35:54;;;;;;;7.80;3.83;;;25.00;30.80;;;;;;4993198;28;20425;-45
2022/08/10 07:38:27;;;;;;;7.50;4.40;;;24.90;30.70;;;;;;4992685;28;20472;-44
2022/08/10 07:40:54;;;;;;;7.40;3.40;;;25.00;30.90;;;;;;4992673;28;20457;-44
2022/08/10 07:43:24;;;;;;;6.10;4.17;;;25.00;31.10;;;;;;4992575;28;20414;-44
2022/08/10 07:45:50;;;;;;;5.23;4.00;;;25.10;31.50;;;;;;4992233;28;20410;-44
2022/08/10 07:48:28;;;;;;;6.57;4.20;;;25.30;31.80;;;;;;4992835;28;20418;-44
2022/08/10 07:50:58;;;;;;;5.10;3.47;;;25.50;31.40;;;;;;4992277;28;20446;-44
2022/08/10 07:53:29;;;;;;;4.70;4.10;;;25.60;31.80;;;;;;4993142;28;20473;-44
2022/08/10 07:55:57;;;;;;;6.10;4.10;;;25.80;31.90;;;;;;4996615;28;20386;-44
2022/08/10 07:58:28;;;;;;;4.27;3.87;;;26.00;32.00;;;;;;4996496;28;20989;-44
2022/08/10 08:00:56;;;;;;;4.67;3.90;;;26.20;31.80;;;;;;4996312;28;20458;-43
2022/08/10 08:03:24;;;;;;;4.27;3.30;;;26.30;31.40;;;;;;4996053;28;20748;-44
2022/08/10 08:05:51;;;;;;;3.87;3.47;;;26.40;30.70;;;;;;4996143;28;20430;-44
2022/08/10 08:08:19;;;;;;;6.30;3.93;;;26.40;29.50;;;;;;4996250;28;20398;-44
2022/08/10 08:10:46;;;;;;;5.77;3.57;;;26.50;29.70;;;;;;4996303;28;20432;-44
2022/08/10 08:13:13;;;;;;;4.60;3.80;;;26.60;30.20;;;;;;4996288;28;20744;-43
2022/08/10 08:15:41;;;;;;;6.27;3.00;;;26.80;30.50;;;;;;4995981;28;20446;-45
2022/08/10 08:18:09;;;;;;;4.43;2.90;;;26.90;29.90;;;;;;4996200;28;20982;-45
2022/08/10 08:20:35;;;;;;;7.37;3.80;;;27.00;29.80;;;;;;4995979;28;20458;-44
2022/08/10 08:23:02;;;;;;;6.17;2.93;;;27.10;28.70;;;;;;4996380;28;20985;-45
2022/08/10 08:25:30;;;;;;;4.40;3.30;;;27.20;29.30;;;;;;4995973;28;20898;-45
2022/08/10 08:27:56;;;;;;;7.03;3.30;;;27.30;30.40;;;;;;4995944;28;20457;-45
2022/08/10 08:30:23;;;;;;;4.30;3.07;;;27.50;30.60;;;;;;4995864;28;20485;-45
2022/08/10 08:32:49;;;;;;;4.00;3.33;;;27.60;30.60;;;;;;4996023;28;20882;-45
2022/08/10 08:35:18;;;;;;;5.33;4.17;;;27.80;30.50;;;;;;4996183;28;20402;-44
2022/08/10 08:37:46;;;;;;;4.43;3.17;;;28.00;29.00;;;;;;4995876;28;20409;-44
2022/08/10 08:40:24;;;;;;;5.87;3.97;;;28.10;30.00;;;;;;4996182;28;20593;-43
2022/08/10 08:43:20;;;;;;;7.53;3.73;;;28.20;30.50;;;;;;4995812;28;20410;-44
2022/08/10 08:46:33;;;;;;;6.73;3.50;;;28.30;28.10;;;;;;4995475;28;20409;-45
2022/08/10 08:49:55;;;;;;;4.43;3.33;;;28.30;27.40;;;;;;4995693;28;20450;-45
2022/08/10 08:52:58;;;;;;;4.63;3.63;;;28.50;28.70;;;;;;4897466;29;20445;-45
2022/08/10 08:55:46;;;;;;;3.63;3.20;;;28.60;28.00;;;;;;4897503;29;20411;-44
2022/08/10 08:58:30;;;;;;;7.50;3.03;;;28.70;28.60;;;;;;4891872;29;20943;-43
2022/08/10 09:01:35;;;;;;;5.43;4.30;;;28.80;27.20;;;;;;4897573;29;21026;-44
2022/08/10 09:04:14;;;;;;;5.00;2.73;;;29.00;28.20;;;;;;4897718;29;20415;-44
2022/08/10 09:07:11;;;;;;;4.60;3.10;;;29.10;27.40;;;;;;4896212;29;20470;-44
2022/08/10 09:10:00;;;;;;;3.83;2.63;;;29.20;27.30;;;;;;4897435;29;20815;-44
2022/08/10 09:12:40;;;;;;;4.27;2.70;;;29.30;25.70;;;;;;4896956;29;20447;-45
2022/08/10 09:15:35;;;;;;;3.87;2.83;;;29.30;25.80;;;;;;4897416;29;20446;-46
2022/08/10 09:18:27;;;;;;;3.60;2.57;;;29.40;26.00;;;;;;4864317;29;20425;-44
2022/08/10 09:21:25;;;;;;;3.30;2.53;;;29.60;25.80;;;;;;4897189;29;20967;-43
2022/08/10 09:23:58;;;;;;;6.00;2.77;;;29.80;26.20;;;;;;4975660;28;20410;-45
2022/08/10 09:26:51;;;;;;;3.73;2.77;;;29.90;25.90;;;;;;5010907;23;20485;-44
2022/08/10 09:29:31;;;;;;;5.97;2.50;;;30.10;26.10;;;;;;5011563;28;20429;-44
2022/08/10 09:32:17;;;;;;;2.50;2.10;;;30.20;26.30;;;;;;5014741;28;20502;-44
2022/08/10 09:34:47;;;;;;;4.83;2.90;;;30.20;26.00;;;;;;5014608;28;20911;-44
2022/08/10 09:37:22;;;;;;;4.30;2.70;;;30.20;26.40;;;;;;5014379;28;20921;-44
2022/08/10 09:39:58;;;;;;;3.30;2.63;;;30.00;25.60;;;;;;5014663;28;20455;-44
2022/08/10 09:42:36;;;;;;;11.80;2.60;;;29.90;25.90;;;;;;5014764;28;20534;-45
2022/08/10 09:45:40;;;;;;;3.63;2.50;;;29.90;26.00;;;;;;5014354;28;20911;-44
2022/08/10 09:48:19;;;;;;;3.07;2.10;;;29.70;25.90;;;;;;5014293;28;20408;-44
2022/08/10 09:50:58;;;;;;;3.43;2.67;;;29.70;26.00;;;;;;5014397;28;20952;-44
2022/08/10 09:53:48;;;;;;;3.33;2.30;;;29.60;26.00;;;;;;5014316;28;20394;-44
2022/08/10 09:56:27;;;;;;;3.60;2.67;;;29.60;25.70;;;;;;5013949;28;20421;-45
2022/08/10 09:59:14;;;;;;;3.63;2.40;;;29.80;25.60;;;;;;5014279;28;20401;-44
2022/08/10 10:02:03;;;;;;;4.50;2.47;;;30.00;25.10;;;;;;5013958;28;20528;-44
2022/08/10 10:04:48;;;;;;;5.03;2.97;;;30.20;25.60;;;;;;5013950;28;20406;-45
2022/08/10 10:07:24;;;;;;;4.23;2.40;;;30.60;25.60;;;;;;5013724;28;20441;-45
2022/08/10 10:10:01;;;;;;;3.23;2.37;;;30.80;23.10;;;;;;5013947;28;20398;-45
2022/08/10 10:12:41;;;;;;;2.77;2.27;;;30.90;23.10;;;;;;5013814;28;20424;-44
2022/08/10 10:15:41;;;;;;;16.73;3.50;;;30.90;22.00;;;;;;5013854;28;20413;-44
2022/08/10 10:18:28;;;;;;;4.17;2.67;;;30.20;22.80;;;;;;5013662;28;20406;-44
2022/08/10 10:21:16;;;;;;;4.70;3.20;;;30.90;24.30;;;;;;5014085;28;20445;-45
2022/08/10 10:24:12;;;;;;;3.97;1.90;;;31.00;23.50;;;;;;5013507;28;21020;-44
2022/08/10 10:27:20;;;;;;;5.60;2.37;;;31.10;23.10;;;;;;5006715;28;20457;-43
2022/08/10 10:30:12;;;;;;;7.90;2.70;;;31.20;22.50;;;;;;5013671;28;20433;-46
2022/08/10 10:32:52;;;;;;;3.03;2.03;;;31.40;22.80;;;;;;5013187;28;20806;-46
2022/08/10 10:35:45;;;;;;;3.47;2.70;;;31.50;23.30;;;;;;5013614;28;20420;-46
2022/08/10 10:38:12;;;;;;;4.30;2.53;;;31.80;23.50;;;;;;5013641;28;20398;-46
2022/08/10 10:40:48;;;;;;;4.50;2.90;;;31.80;21.30;;;;;;5013251;28;21007;-46
2022/08/10 10:43:29;;;;;;;2.97;2.30;;;31.70;22.30;;;;;;5013566;28;20476;-46
2022/08/10 10:46:03;;;;;;;4.73;2.83;;;31.70;22.70;;;;;;5013065;28;20926;-44
2022/08/10 10:48:59;;;;;;;4.50;2.70;;;31.60;22.90;;;;;;5013122;28;20411;-45
2022/08/10 10:51:32;;;;;;;3.03;2.50;;;31.60;22.90;;;;;;5006952;28;20488;-44
2022/08/10 10:54:20;;;;;;;4.33;3.30;;;31.60;22.80;;;;;;5012999;28;20849;-45
2022/08/10 10:57:12;;;;;;;3.80;2.73;;;31.60;23.00;;;;;;5012716;28;20874;-45
2022/08/10 11:00:14;;;;;;;4.20;2.50;;;31.60;23.00;;;;;;5013310;28;20393;-44
2022/08/10 11:03:06;;;;;;;3.40;2.83;;;31.60;22.40;;;;;;5012953;28;20946;-46
2022/08/10 11:05:48;;;;;;;3.10;2.10;;;31.60;21.50;;;;;;4982389;28;20937;-44
2022/08/10 11:08:29;;;;;;;4.07;2.83;;;31.50;21.30;;;;;;5012990;28;20905;-46
2022/08/10 11:11:00;;;;;;;4.70;2.73;;;31.50;21.60;;;;;;5012904;28;20401;-44
2022/08/10 11:13:37;;;;;;;3.73;3.00;;;31.50;21.60;;;;;;5012787;28;20877;-44
2022/08/10 11:16:23;;;;;;;3.20;2.30;;;31.50;21.80;;;;;;5012578;28;20426;-45
2022/08/10 11:19:08;;;;;;;3.67;3.17;;;31.50;21.50;;;;;;5012562;28;20445;-44
2022/08/10 11:21:56;;;;;;;6.70;3.40;;;31.60;20.50;;;;;;5012753;28;20535;-45
2022/08/10 11:24:43;;;;;;;4.27;3.07;;;31.70;21.20;;;;;;5012784;28;20402;-43
2022/08/10 11:27:29;;;;;;;5.03;2.63;;;31.80;20.00;;;;;;5012136;28;20514;-45
2022/08/10 11:30:05;;;;;;;3.67;2.83;;;32.00;20.80;;;;;;5011886;28;20390;-45
2022/08/10 11:32:56;;;;;;;3.77;2.80;;;32.20;21.40;;;;;;5012443;28;20420;-46
2022/08/10 11:35:35;;;;;;;4.37;2.83;;;32.30;21.30;;;;;;5012299;28;20931;-45
2022/08/10 11:38:11;;;;;;;3.57;2.90;;;32.60;21.60;;;;;;5012625;28;20392;-43
2022/08/10 11:41:04;;;;;;;3.67;2.37;;;32.70;20.80;;;;;;5012492;28;20507;-44
2022/08/10 11:43:38;;;;;;;4.23;2.53;;;32.70;20.20;;;;;;5012486;28;20408;-45
2022/08/10 11:46:10;;;;;;;2.70;2.40;;;32.90;20.30;;;;;;5012001;28;20432;-44
2022/08/10 11:48:48;;;;;;;4.77;2.57;;;32.90;20.60;;;;;;5012280;28;20406;-45
2022/08/10 11:51:21;;;;;;;5.40;2.80;;;33.00;21.00;;;;;;5012160;28;20417;-44
2022/08/10 11:53:51;;;;;;;4.23;3.00;;;33.00;20.70;;;;;;5012488;28;20409;-46
2022/08/10 11:56:38;;;;;;;3.37;2.30;;;33.00;20.10;;;;;;5011751;28;20962;-44
2022/08/10 12:01:51;;;;;;;3.40;2.40;;;32.90;19.60;;;;;;5012209;28;20515;-43
2022/08/10 12:04:20;;;;;;;3.57;2.40;;;32.80;19.40;;;;;;5012217;28;20410;-44
2022/08/10 12:06:47;;;;;;;4.40;3.20;;;32.70;19.30;;;;;;5012043;28;20513;-44
2022/08/10 12:09:16;;;;;;;3.30;2.50;;;32.60;19.50;;;;;;5012317;28;20416;-44
2022/08/10 12:11:43;;;;;;;4.70;2.93;;;32.40;19.80;;;;;;5012010;28;20430;-44
2022/08/10 12:14:31;;;;;;;3.13;2.37;;;32.40;20.00;;;;;;5011882;28;20432;-45
2022/08/10 12:17:04;;;;;;;4.30;2.50;;;32.40;18.90;;;;;;5011639;28;20433;-43
2022/08/10 12:19:44;;;;;;;3.50;2.57;;;32.50;19.80;;;;;;5012307;28;20397;-46
2022/08/10 12:22:16;;;;;;;4.03;2.70;;;32.60;19.90;;;;;;5011855;28;20895;-44
2022/08/10 12:24:48;;;;;;;4.77;2.37;;;32.50;19.70;;;;;;5012150;28;20394;-44
2022/08/10 12:27:28;;;;;;;3.20;2.60;;;32.40;19.60;;;;;;5011465;28;21035;-44
2022/08/10 12:30:10;;;;;;;3.03;2.40;;;32.30;20.10;;;;;;5011879;28;20389;-44
2022/08/10 12:32:53;;;;;;;7.00;2.67;;;32.20;20.00;;;;;;5011796;28;20420;-44
2022/08/10 12:35:44;;;;;;;4.57;2.77;;;32.10;19.60;;;;;;5011705;28;20435;-44
2022/08/10 12:38:47;;;;;;;3.50;2.60;;;31.90;19.90;;;;;;5012001;28;20394;-43
2022/08/10 12:41:19;;;;;;;3.67;2.73;;;31.80;20.10;;;;;;5014855;28;20485;-44
2022/08/10 12:43:57;;;;;;;3.70;2.70;;;31.60;20.50;;;;;;5015363;28;20405;-44
2022/08/10 12:46:40;;;;;;;5.10;3.57;;;31.50;20.40;;;;;;5015342;28;20515;-45
2022/08/10 12:49:48;;;;;;;4.63;3.27;;;31.50;20.10;;;;;;5015753;28;20420;-43
2022/08/10 12:52:30;;;;;;;3.50;2.50;;;31.40;20.30;;;;;;5015511;28;20403;-44
2022/08/10 12:54:59;;;;;;;4.80;2.70;;;31.30;20.50;;;;;;5015214;28;20428;-44
2022/08/10 12:57:26;;;;;;;4.67;3.30;;;31.20;20.50;;;;;;5014948;28;20508;-45
2022/08/10 12:59:57;;;;;;;3.70;2.70;;;31.20;20.50;;;;;;5015240;28;20482;-44
2022/08/10 13:02:24;;;;;;;4.20;2.70;;;31.10;20.40;;;;;;5015065;28;20820;-46
2022/08/10 13:04:53;;;;;;;2.93;2.40;;;31.10;20.40;;;;;;5015010;28;20411;-44
2022/08/10 13:07:43;;;;;;;3.80;2.90;;;31.00;20.50;;;;;;5014485;28;20957;-46
2022/08/10 13:10:17;;;;;;;4.10;2.57;;;31.00;20.70;;;;;;4997300;28;20540;-44
2022/08/10 13:12:49;;;;;;;5.70;3.70;;;30.90;20.50;;;;;;5014959;28;20409;-44
2022/08/10 13:15:24;;;;;;;3.20;2.60;;;30.90;20.10;;;;;;5014741;28;20893;-43
2022/08/10 13:17:53;;;;;;;5.57;3.20;;;30.90;20.20;;;;;;5014555;28;20419;-44
2022/08/10 13:20:33;;;;;;;3.03;2.67;;;30.90;20.00;;;;;;5014487;28;20416;-45
2022/08/10 13:23:02;;;;;;;3.00;2.30;;;30.90;20.10;;;;;;4997032;28;21124;-44
2022/08/10 13:25:35;;;;;;;4.13;2.63;;;30.90;19.90;;;;;;5014262;28;20407;-42